sensor_id;sensor_type;location;lat;lon;timestamp;P1;P2;P0
77481;PMS5003;66582;43.004;-75.010;2023-03-14T00:01:43;7;7;
77481;PMS5003;66582;43.004;-75.010;2023-03-14T00:04:08;5;5;
77481;PMS5003;66582;43.004;-75.010;2023-03-14T00:06:34;10;7;
77481;PMS5003;66582;43.004;-75.010;2023-03-14T00:08:58;9;9;
77481;PMS5003;66582;43.004;-75.010;2023-03-14T00:11:24;10;10;
77481;PMS5003;66582;43.004;-75.010;2023-03-14T00:13:48;11;11;
77481;PMS5003;66582;43.004;-75.010;2023-03-14T00:16:16;9;9;
77481;PMS5003;66582;43.004;-75.010;2023-03-14T00:18:39;8;7;
77481;PMS5003;66582;43.004;-75.010;2023-03-14T00:21:05;12;11;
77481;PMS5003;66582;43.004;-75.010;2023-03-14T00:23:30;12;11;
77481;PMS5003;66582;43.004;-75.010;2023-03-14T00:25:57;10;7;
77481;PMS5003;66582;43.004;-75.010;2023-03-14T00:28:19;9;7;
77481;PMS5003;66582;43.004;-75.010;2023-03-14T00:30:44;9;9;
77481;PMS5003;66582;43.004;-75.010;2023-03-14T00:33:10;11;11;
77481;PMS5003;66582;43.004;-75.010;2023-03-14T00:35:35;11;11;
77481;PMS5003;66582;43.004;-75.010;2023-03-14T00:38:00;12;10;
77481;PMS5003;66582;43.004;-75.010;2023-03-14T00:40:25;11;11;
77481;PMS5003;66582;43.004;-75.010;2023-03-14T00:42:51;11;11;
77481;PMS5003;66582;43.004;-75.010;2023-03-14T00:45:16;14;12;
77481;PMS5003;66582;43.004;-75.010;2023-03-14T00:47:42;12;12;
77481;PMS5003;66582;43.004;-75.010;2023-03-14T00:50:07;13;12;
77481;PMS5003;66582;43.004;-75.010;2023-03-14T00:52:32;11;11;
77481;PMS5003;66582;43.004;-75.010;2023-03-14T00:54:57;11;11;
77481;PMS5003;66582;43.004;-75.010;2023-03-14T00:57:23;15;14;
77481;PMS5003;66582;43.004;-75.010;2023-03-14T00:59:48;15;14;
77481;PMS5003;66582;43.004;-75.010;2023-03-14T01:02:13;11;11;
77481;PMS5003;66582;43.004;-75.010;2023-03-14T01:04:38;13;13;
77481;PMS5003;66582;43.004;-75.010;2023-03-14T01:07:04;14;13;
77481;PMS5003;66582;43.004;-75.010;2023-03-14T01:09:28;11;11;
77481;PMS5003;66582;43.004;-75.010;2023-03-14T01:11:54;13;13;
77481;PMS5003;66582;43.004;-75.010;2023-03-14T01:14:19;10;10;
77481;PMS5003;66582;43.004;-75.010;2023-03-14T01:16:44;15;12;
77481;PMS5003;66582;43.004;-75.010;2023-03-14T01:19:10;11;10;
77481;PMS5003;66582;43.004;-75.010;2023-03-14T01:21:35;10;10;
77481;PMS5003;66582;43.004;-75.010;2023-03-14T01:24:00;9;7;
77481;PMS5003;66582;43.004;-75.010;2023-03-14T01:26:29;10;10;
77481;PMS5003;66582;43.004;-75.010;2023-03-14T01:28:52;11;11;
77481;PMS5003;66582;43.004;-75.010;2023-03-14T01:31:16;13;13;
77481;PMS5003;66582;43.004;-75.010;2023-03-14T01:33:41;12;10;
77481;PMS5003;66582;43.004;-75.010;2023-03-14T01:36:07;9;9;
77481;PMS5003;66582;43.004;-75.010;2023-03-14T01:38:33;9;9;
77481;PMS5003;66582;43.004;-75.010;2023-03-14T01:40:57;10;9;
77481;PMS5003;66582;43.004;-75.010;2023-03-14T01:43:22;8;8;
77481;PMS5003;66582;43.004;-75.010;2023-03-14T01:48:12;8;8;
77481;PMS5003;66582;43.004;-75.010;2023-03-14T01:50:37;9;9;
77481;PMS5003;66582;43.004;-75.010;2023-03-14T01:53:02;12;10;
77481;PMS5003;66582;43.004;-75.010;2023-03-14T01:55:28;12;12;
77481;PMS5003;66582;43.004;-75.010;2023-03-14T01:57:54;10;8;
77481;PMS5003;66582;43.004;-75.010;2023-03-14T02:00:20;10;7;
77481;PMS5003;66582;43.004;-75.010;2023-03-14T02:02:45;12;12;
77481;PMS5003;66582;43.004;-75.010;2023-03-14T02:05:10;10;8;
77481;PMS5003;66582;43.004;-75.010;2023-03-14T02:07:36;8;7;
77481;PMS5003;66582;43.004;-75.010;2023-03-14T02:10:00;12;12;
77481;PMS5003;66582;43.004;-75.010;2023-03-14T02:12:26;15;15;
77481;PMS5003;66582;43.004;-75.010;2023-03-14T02:14:51;14;14;
77481;PMS5003;66582;43.004;-75.010;2023-03-14T02:17:17;7;7;
77481;PMS5003;66582;43.004;-75.010;2023-03-14T02:19:47;14;13;
77481;PMS5003;66582;43.004;-75.010;2023-03-14T02:22:09;14;12;
77481;PMS5003;66582;43.004;-75.010;2023-03-14T02:24:34;9;9;
77481;PMS5003;66582;43.004;-75.010;2023-03-14T02:27:01;13;12;
77481;PMS5003;66582;43.004;-75.010;2023-03-14T02:29:23;16;14;
77481;PMS5003;66582;43.004;-75.010;2023-03-14T02:31:48;12;12;
77481;PMS5003;66582;43.004;-75.010;2023-03-14T02:34:14;21;21;
77481;PMS5003;66582;43.004;-75.010;2023-03-14T02:36:39;19;17;
77481;PMS5003;66582;43.004;-75.010;2023-03-14T02:39:07;20;18;
77481;PMS5003;66582;43.004;-75.010;2023-03-14T02:41:31;17;16;
77481;PMS5003;66582;43.004;-75.010;2023-03-14T02:43:56;20;20;
77481;PMS5003;66582;43.004;-75.010;2023-03-14T02:46:22;23;22;
77481;PMS5003;66582;43.004;-75.010;2023-03-14T02:48:47;19;16;
77481;PMS5003;66582;43.004;-75.010;2023-03-14T02:51:12;19;18;
77481;PMS5003;66582;43.004;-75.010;2023-03-14T02:53:37;21;18;
77481;PMS5003;66582;43.004;-75.010;2023-03-14T02:56:04;25;21;
77481;PMS5003;66582;43.004;-75.010;2023-03-14T02:58:28;25;24;
77481;PMS5003;66582;43.004;-75.010;2023-03-14T03:00:53;20;18;
77481;PMS5003;66582;43.004;-75.010;2023-03-14T03:03:19;20;19;
77481;PMS5003;66582;43.004;-75.010;2023-03-14T03:05:47;24;22;
77481;PMS5003;66582;43.004;-75.010;2023-03-14T03:08:09;24;20;
77481;PMS5003;66582;43.004;-75.010;2023-03-14T03:10:35;23;20;
77481;PMS5003;66582;43.004;-75.010;2023-03-14T03:13:01;18;17;
77481;PMS5003;66582;43.004;-75.010;2023-03-14T03:15:26;17;17;
77481;PMS5003;66582;43.004;-75.010;2023-03-14T03:17:51;16;16;
77481;PMS5003;66582;43.004;-75.010;2023-03-14T03:20:17;17;15;
77481;PMS5003;66582;43.004;-75.010;2023-03-14T03:22:42;14;14;
77481;PMS5003;66582;43.004;-75.010;2023-03-14T03:25:08;12;12;
77481;PMS5003;66582;43.004;-75.010;2023-03-14T03:27:33;12;11;
77481;PMS5003;66582;43.004;-75.010;2023-03-14T03:29:58;11;11;
77481;PMS5003;66582;43.004;-75.010;2023-03-14T03:32:23;11;11;
77481;PMS5003;66582;43.004;-75.010;2023-03-14T03:34:48;12;12;
77481;PMS5003;66582;43.004;-75.010;2023-03-14T03:37:14;14;14;
77481;PMS5003;66582;43.004;-75.010;2023-03-14T03:39:39;12;12;
77481;PMS5003;66582;43.004;-75.010;2023-03-14T03:42:04;12;11;
77481;PMS5003;66582;43.004;-75.010;2023-03-14T03:44:29;16;14;
77481;PMS5003;66582;43.004;-75.010;2023-03-14T03:46:55;18;16;
77481;PMS5003;66582;43.004;-75.010;2023-03-14T03:49:20;13;11;
77481;PMS5003;66582;43.004;-75.010;2023-03-14T03:51:45;10;10;
77481;PMS5003;66582;43.004;-75.010;2023-03-14T03:54:10;13;13;
77481;PMS5003;66582;43.004;-75.010;2023-03-14T03:56:36;15;15;
77481;PMS5003;66582;43.004;-75.010;2023-03-14T03:59:01;14;14;
77481;PMS5003;66582;43.004;-75.010;2023-03-14T04:01:26;12;11;
77481;PMS5003;66582;43.004;-75.010;2023-03-14T04:03:51;12;12;
77481;PMS5003;66582;43.004;-75.010;2023-03-14T04:06:16;13;12;
77481;PMS5003;66582;43.004;-75.010;2023-03-14T04:08:41;11;11;
77481;PMS5003;66582;43.004;-75.010;2023-03-14T04:11:07;12;11;
77481;PMS5003;66582;43.004;-75.010;2023-03-14T04:13:32;13;13;
77481;PMS5003;66582;43.004;-75.010;2023-03-14T04:15:58;10;10;
77481;PMS5003;66582;43.004;-75.010;2023-03-14T04:18:23;12;11;
77481;PMS5003;66582;43.004;-75.010;2023-03-14T04:20:50;10;10;
77481;PMS5003;66582;43.004;-75.010;2023-03-14T04:23:14;11;9;
77481;PMS5003;66582;43.004;-75.010;2023-03-14T04:25:38;11;10;
77481;PMS5003;66582;43.004;-75.010;2023-03-14T04:28:04;9;9;
77481;PMS5003;66582;43.004;-75.010;2023-03-14T04:30:29;9;8;
77481;PMS5003;66582;43.004;-75.010;2023-03-14T04:32:54;6;6;
77481;PMS5003;66582;43.004;-75.010;2023-03-14T04:35:19;9;8;
77481;PMS5003;66582;43.004;-75.010;2023-03-14T04:37:45;9;9;
77481;PMS5003;66582;43.004;-75.010;2023-03-14T04:40:10;5;5;
77481;PMS5003;66582;43.004;-75.010;2023-03-14T04:42:35;5;5;
77481;PMS5003;66582;43.004;-75.010;2023-03-14T04:45:00;8;6;
77481;PMS5003;66582;43.004;-75.010;2023-03-14T04:47:25;5;5;
77481;PMS5003;66582;43.004;-75.010;2023-03-14T04:49:50;5;5;
77481;PMS5003;66582;43.004;-75.010;2023-03-14T04:52:16;6;6;
77481;PMS5003;66582;43.004;-75.010;2023-03-14T04:54:41;5;5;
77481;PMS5003;66582;43.004;-75.010;2023-03-14T04:57:06;5;5;
77481;PMS5003;66582;43.004;-75.010;2023-03-14T04:59:31;8;8;
77481;PMS5003;66582;43.004;-75.010;2023-03-14T05:01:57;6;6;
77481;PMS5003;66582;43.004;-75.010;2023-03-14T05:04:21;8;8;
77481;PMS5003;66582;43.004;-75.010;2023-03-14T05:06:47;5;5;
77481;PMS5003;66582;43.004;-75.010;2023-03-14T05:09:12;6;6;
77481;PMS5003;66582;43.004;-75.010;2023-03-14T05:11:38;5;3;
77481;PMS5003;66582;43.004;-75.010;2023-03-14T05:14:03;4;4;
77481;PMS5003;66582;43.004;-75.010;2023-03-14T05:16:28;3;3;
77481;PMS5003;66582;43.004;-75.010;2023-03-14T05:18:53;4;4;
77481;PMS5003;66582;43.004;-75.010;2023-03-14T05:21:18;4;4;
77481;PMS5003;66582;43.004;-75.010;2023-03-14T05:23:43;5;4;
77481;PMS5003;66582;43.004;-75.010;2023-03-14T05:26:09;4;4;
77481;PMS5003;66582;43.004;-75.010;2023-03-14T05:28:34;3;3;
77481;PMS5003;66582;43.004;-75.010;2023-03-14T05:30:59;3;3;
77481;PMS5003;66582;43.004;-75.010;2023-03-14T05:33:24;4;3;
77481;PMS5003;66582;43.004;-75.010;2023-03-14T05:35:49;3;3;
77481;PMS5003;66582;43.004;-75.010;2023-03-14T05:38:14;3;3;
77481;PMS5003;66582;43.004;-75.010;2023-03-14T05:40:39;3;3;
77481;PMS5003;66582;43.004;-75.010;2023-03-14T05:43:04;4;4;
77481;PMS5003;66582;43.004;-75.010;2023-03-14T05:45:30;4;4;
77481;PMS5003;66582;43.004;-75.010;2023-03-14T05:47:55;3;3;
77481;PMS5003;66582;43.004;-75.010;2023-03-14T05:50:20;3;3;
77481;PMS5003;66582;43.004;-75.010;2023-03-14T05:52:45;3;3;
77481;PMS5003;66582;43.004;-75.010;2023-03-14T05:55:10;4;4;
77481;PMS5003;66582;43.004;-75.010;2023-03-14T05:57:35;4;4;
77481;PMS5003;66582;43.004;-75.010;2023-03-14T06:00:01;4;4;
77481;PMS5003;66582;43.004;-75.010;2023-03-14T06:02:26;5;5;
77481;PMS5003;66582;43.004;-75.010;2023-03-14T06:04:51;4;4;
77481;PMS5003;66582;43.004;-75.010;2023-03-14T06:07:16;8;8;
77481;PMS5003;66582;43.004;-75.010;2023-03-14T06:09:41;6;6;
77481;PMS5003;66582;43.004;-75.010;2023-03-14T06:12:07;5;4;
77481;PMS5003;66582;43.004;-75.010;2023-03-14T06:14:31;6;5;
77481;PMS5003;66582;43.004;-75.010;2023-03-14T06:16:57;5;4;
77481;PMS5003;66582;43.004;-75.010;2023-03-14T06:19:22;4;4;
77481;PMS5003;66582;43.004;-75.010;2023-03-14T06:21:48;4;4;
77481;PMS5003;66582;43.004;-75.010;2023-03-14T06:24:13;5;4;
77481;PMS5003;66582;43.004;-75.010;2023-03-14T06:26:38;4;4;
77481;PMS5003;66582;43.004;-75.010;2023-03-14T06:29:03;5;5;
77481;PMS5003;66582;43.004;-75.010;2023-03-14T06:31:28;3;2;
77481;PMS5003;66582;43.004;-75.010;2023-03-14T06:33:54;3;3;
77481;PMS5003;66582;43.004;-75.010;2023-03-14T06:36:18;5;5;
77481;PMS5003;66582;43.004;-75.010;2023-03-14T06:38:44;3;2;
77481;PMS5003;66582;43.004;-75.010;2023-03-14T06:41:09;2;2;
77481;PMS5003;66582;43.004;-75.010;2023-03-14T06:43:34;2;2;
77481;PMS5003;66582;43.004;-75.010;2023-03-14T06:46:00;3;3;
77481;PMS5003;66582;43.004;-75.010;2023-03-14T06:48:24;2;2;
77481;PMS5003;66582;43.004;-75.010;2023-03-14T06:50:49;3;3;
77481;PMS5003;66582;43.004;-75.010;2023-03-14T06:53:15;2;2;
77481;PMS5003;66582;43.004;-75.010;2023-03-14T06:55:40;3;3;
77481;PMS5003;66582;43.004;-75.010;2023-03-14T06:58:05;2;2;
77481;PMS5003;66582;43.004;-75.010;2023-03-14T07:00:30;2;2;
77481;PMS5003;66582;43.004;-75.010;2023-03-14T07:02:55;3;3;
77481;PMS5003;66582;43.004;-75.010;2023-03-14T07:05:20;4;2;
77481;PMS5003;66582;43.004;-75.010;2023-03-14T07:07:45;2;2;
77481;PMS5003;66582;43.004;-75.010;2023-03-14T07:10:11;1;1;
77481;PMS5003;66582;43.004;-75.010;2023-03-14T07:12:36;1;1;
77481;PMS5003;66582;43.004;-75.010;2023-03-14T07:15:01;2;2;
77481;PMS5003;66582;43.004;-75.010;2023-03-14T07:17:26;1;1;
77481;PMS5003;66582;43.004;-75.010;2023-03-14T07:19:51;2;2;
77481;PMS5003;66582;43.004;-75.010;2023-03-14T07:22:16;2;2;
77481;PMS5003;66582;43.004;-75.010;2023-03-14T07:24:41;3;3;
77481;PMS5003;66582;43.004;-75.010;2023-03-14T07:27:06;2;2;
77481;PMS5003;66582;43.004;-75.010;2023-03-14T07:29:32;2;2;
77481;PMS5003;66582;43.004;-75.010;2023-03-14T07:31:57;1;1;
77481;PMS5003;66582;43.004;-75.010;2023-03-14T07:34:22;1;1;
77481;PMS5003;66582;43.004;-75.010;2023-03-14T07:36:47;2;2;
77481;PMS5003;66582;43.004;-75.010;2023-03-14T07:39:12;2;2;
77481;PMS5003;66582;43.004;-75.010;2023-03-14T07:41:37;2;2;
77481;PMS5003;66582;43.004;-75.010;2023-03-14T07:44:03;2;2;
77481;PMS5003;66582;43.004;-75.010;2023-03-14T07:46:28;1;1;
77481;PMS5003;66582;43.004;-75.010;2023-03-14T07:48:53;3;3;
77481;PMS5003;66582;43.004;-75.010;2023-03-14T07:51:18;1;1;
77481;PMS5003;66582;43.004;-75.010;2023-03-14T07:53:43;1;1;
77481;PMS5003;66582;43.004;-75.010;2023-03-14T07:56:09;1;1;
77481;PMS5003;66582;43.004;-75.010;2023-03-14T07:58:33;0;0;
77481;PMS5003;66582;43.004;-75.010;2023-03-14T08:00:59;2;2;
77481;PMS5003;66582;43.004;-75.010;2023-03-14T08:03:24;1;1;
77481;PMS5003;66582;43.004;-75.010;2023-03-14T08:05:49;1;1;
77481;PMS5003;66582;43.004;-75.010;2023-03-14T08:08:14;2;2;
77481;PMS5003;66582;43.004;-75.010;2023-03-14T08:10:39;1;1;
77481;PMS5003;66582;43.004;-75.010;2023-03-14T08:13:04;2;1;
77481;PMS5003;66582;43.004;-75.010;2023-03-14T08:15:30;2;2;
77481;PMS5003;66582;43.004;-75.010;2023-03-14T08:17:55;1;1;
77481;PMS5003;66582;43.004;-75.010;2023-03-14T08:20:20;1;1;
77481;PMS5003;66582;43.004;-75.010;2023-03-14T08:22:45;3;3;
77481;PMS5003;66582;43.004;-75.010;2023-03-14T08:25:10;1;1;
77481;PMS5003;66582;43.004;-75.010;2023-03-14T08:27:35;1;1;
77481;PMS5003;66582;43.004;-75.010;2023-03-14T08:30:01;1;1;
77481;PMS5003;66582;43.004;-75.010;2023-03-14T08:32:26;2;2;
77481;PMS5003;66582;43.004;-75.010;2023-03-14T08:34:51;2;2;
77481;PMS5003;66582;43.004;-75.010;2023-03-14T08:37:16;1;1;
77481;PMS5003;66582;43.004;-75.010;2023-03-14T08:39:41;2;2;
77481;PMS5003;66582;43.004;-75.010;2023-03-14T08:42:07;0;0;
77481;PMS5003;66582;43.004;-75.010;2023-03-14T08:44:31;1;1;
77481;PMS5003;66582;43.004;-75.010;2023-03-14T08:46:57;0;0;
77481;PMS5003;66582;43.004;-75.010;2023-03-14T08:49:22;4;4;
77481;PMS5003;66582;43.004;-75.010;2023-03-14T08:51:47;2;2;
77481;PMS5003;66582;43.004;-75.010;2023-03-14T08:54:12;2;2;
77481;PMS5003;66582;43.004;-75.010;2023-03-14T08:56:37;1;1;
77481;PMS5003;66582;43.004;-75.010;2023-03-14T08:59:02;1;1;
77481;PMS5003;66582;43.004;-75.010;2023-03-14T09:01:27;2;2;
77481;PMS5003;66582;43.004;-75.010;2023-03-14T09:03:52;1;1;
77481;PMS5003;66582;43.004;-75.010;2023-03-14T09:06:18;1;1;
77481;PMS5003;66582;43.004;-75.010;2023-03-14T09:08:43;1;1;
77481;PMS5003;66582;43.004;-75.010;2023-03-14T09:11:08;1;1;
77481;PMS5003;66582;43.004;-75.010;2023-03-14T09:13:34;2;2;
77481;PMS5003;66582;43.004;-75.010;2023-03-14T09:15:59;1;1;
77481;PMS5003;66582;43.004;-75.010;2023-03-14T09:18:23;2;1;
77481;PMS5003;66582;43.004;-75.010;2023-03-14T09:20:49;0;0;
77481;PMS5003;66582;43.004;-75.010;2023-03-14T09:23:14;2;2;
77481;PMS5003;66582;43.004;-75.010;2023-03-14T09:25:39;2;2;
77481;PMS5003;66582;43.004;-75.010;2023-03-14T09:28:05;2;2;
77481;PMS5003;66582;43.004;-75.010;2023-03-14T09:30:29;0;0;
77481;PMS5003;66582;43.004;-75.010;2023-03-14T09:32:54;3;2;
77481;PMS5003;66582;43.004;-75.010;2023-03-14T09:35:19;2;1;
77481;PMS5003;66582;43.004;-75.010;2023-03-14T09:37:46;3;3;
77481;PMS5003;66582;43.004;-75.010;2023-03-14T09:40:11;2;2;
77481;PMS5003;66582;43.004;-75.010;2023-03-14T09:42:35;2;2;
77481;PMS5003;66582;43.004;-75.010;2023-03-14T09:45:02;3;3;
77481;PMS5003;66582;43.004;-75.010;2023-03-14T09:47:25;2;2;
77481;PMS5003;66582;43.004;-75.010;2023-03-14T09:49:50;1;1;
77481;PMS5003;66582;43.004;-75.010;2023-03-14T09:52:16;3;3;
77481;PMS5003;66582;43.004;-75.010;2023-03-14T09:54:42;2;2;
77481;PMS5003;66582;43.004;-75.010;2023-03-14T09:57:08;3;3;
77481;PMS5003;66582;43.004;-75.010;2023-03-14T09:59:31;2;2;
77481;PMS5003;66582;43.004;-75.010;2023-03-14T10:01:58;3;3;
77481;PMS5003;66582;43.004;-75.010;2023-03-14T10:04:22;3;3;
77481;PMS5003;66582;43.004;-75.010;2023-03-14T10:06:46;2;2;
77481;PMS5003;66582;43.004;-75.010;2023-03-14T10:09:13;2;2;
77481;PMS5003;66582;43.004;-75.010;2023-03-14T10:11:39;3;3;
77481;PMS5003;66582;43.004;-75.010;2023-03-14T10:14:04;4;3;
77481;PMS5003;66582;43.004;-75.010;2023-03-14T10:16:28;4;4;
77481;PMS5003;66582;43.004;-75.010;2023-03-14T10:18:52;3;3;
77481;PMS5003;66582;43.004;-75.010;2023-03-14T10:21:20;3;2;
77481;PMS5003;66582;43.004;-75.010;2023-03-14T10:23:42;3;3;
77481;PMS5003;66582;43.004;-75.010;2023-03-14T10:26:12;2;2;
77481;PMS5003;66582;43.004;-75.010;2023-03-14T10:28:34;3;2;
77481;PMS5003;66582;43.004;-75.010;2023-03-14T10:30:58;2;2;
77481;PMS5003;66582;43.004;-75.010;2023-03-14T10:33:24;5;5;
77481;PMS5003;66582;43.004;-75.010;2023-03-14T10:35:52;4;4;
77481;PMS5003;66582;43.004;-75.010;2023-03-14T10:38:15;3;3;
77481;PMS5003;66582;43.004;-75.010;2023-03-14T10:40:40;4;4;
77481;PMS5003;66582;43.004;-75.010;2023-03-14T10:43:04;3;3;
77481;PMS5003;66582;43.004;-75.010;2023-03-14T10:45:31;3;3;
77481;PMS5003;66582;43.004;-75.010;2023-03-14T10:47:54;2;2;
77481;PMS5003;66582;43.004;-75.010;2023-03-14T10:50:23;3;3;
77481;PMS5003;66582;43.004;-75.010;2023-03-14T10:52:47;4;3;
77481;PMS5003;66582;43.004;-75.010;2023-03-14T10:55:11;4;3;
77481;PMS5003;66582;43.004;-75.010;2023-03-14T10:57:38;2;2;
77481;PMS5003;66582;43.004;-75.010;2023-03-14T11:00:00;4;3;
77481;PMS5003;66582;43.004;-75.010;2023-03-14T11:04:55;2;2;
77481;PMS5003;66582;43.004;-75.010;2023-03-14T11:07:16;3;3;
77481;PMS5003;66582;43.004;-75.010;2023-03-14T11:09:42;3;3;
77481;PMS5003;66582;43.004;-75.010;2023-03-14T11:12:13;4;4;
77481;PMS5003;66582;43.004;-75.010;2023-03-14T11:14:32;4;4;
77481;PMS5003;66582;43.004;-75.010;2023-03-14T11:16:58;3;3;
77481;PMS5003;66582;43.004;-75.010;2023-03-14T11:19:28;4;4;
77481;PMS5003;66582;43.004;-75.010;2023-03-14T11:21:49;5;5;
77481;PMS5003;66582;43.004;-75.010;2023-03-14T11:24:17;5;4;
77481;PMS5003;66582;43.004;-75.010;2023-03-14T11:26:38;4;4;
77481;PMS5003;66582;43.004;-75.010;2023-03-14T11:29:07;5;4;
77481;PMS5003;66582;43.004;-75.010;2023-03-14T11:31:28;5;3;
77481;PMS5003;66582;43.004;-75.010;2023-03-14T11:33:54;4;3;
77481;PMS5003;66582;43.004;-75.010;2023-03-14T11:36:19;4;4;
77481;PMS5003;66582;43.004;-75.010;2023-03-14T11:38:46;4;3;
77481;PMS5003;66582;43.004;-75.010;2023-03-14T11:41:10;4;3;
77481;PMS5003;66582;43.004;-75.010;2023-03-14T11:43:34;4;4;
77481;PMS5003;66582;43.004;-75.010;2023-03-14T11:46:03;5;4;
77481;PMS5003;66582;43.004;-75.010;2023-03-14T11:48:27;4;4;
77481;PMS5003;66582;43.004;-75.010;2023-03-14T11:50:49;4;4;
77481;PMS5003;66582;43.004;-75.010;2023-03-14T11:53:15;5;4;
77481;PMS5003;66582;43.004;-75.010;2023-03-14T11:55:40;4;4;
77481;PMS5003;66582;43.004;-75.010;2023-03-14T11:58:09;7;5;
77481;PMS5003;66582;43.004;-75.010;2023-03-14T12:00:29;4;4;
77481;PMS5003;66582;43.004;-75.010;2023-03-14T12:02:57;4;4;
77481;PMS5003;66582;43.004;-75.010;2023-03-14T12:05:30;3;3;
77481;PMS5003;66582;43.004;-75.010;2023-03-14T12:07:48;3;3;
77481;PMS5003;66582;43.004;-75.010;2023-03-14T12:10:11;4;4;
77481;PMS5003;66582;43.004;-75.010;2023-03-14T12:12:35;3;3;
77481;PMS5003;66582;43.004;-75.010;2023-03-14T12:15:01;4;3;
77481;PMS5003;66582;43.004;-75.010;2023-03-14T12:17:26;4;4;
77481;PMS5003;66582;43.004;-75.010;2023-03-14T12:22:21;3;3;
77481;PMS5003;66582;43.004;-75.010;2023-03-14T12:24:44;5;4;
77481;PMS5003;66582;43.004;-75.010;2023-03-14T12:27:10;3;3;
77481;PMS5003;66582;43.004;-75.010;2023-03-14T12:29:31;3;3;
77481;PMS5003;66582;43.004;-75.010;2023-03-14T12:34:26;3;3;
77481;PMS5003;66582;43.004;-75.010;2023-03-14T12:36:51;4;4;
77481;PMS5003;66582;43.004;-75.010;2023-03-14T12:39:14;3;3;
77481;PMS5003;66582;43.004;-75.010;2023-03-14T12:41:38;2;2;
77481;PMS5003;66582;43.004;-75.010;2023-03-14T12:46:28;3;3;
77481;PMS5003;66582;43.004;-75.010;2023-03-14T12:48:54;3;3;
77481;PMS5003;66582;43.004;-75.010;2023-03-14T12:51:18;2;2;
77481;PMS5003;66582;43.004;-75.010;2023-03-14T12:56:11;8;7;
77481;PMS5003;66582;43.004;-75.010;2023-03-14T12:58:34;4;4;
77481;PMS5003;66582;43.004;-75.010;2023-03-14T13:00:59;3;2;
77481;PMS5003;66582;43.004;-75.010;2023-03-14T13:03:24;2;2;
77481;PMS5003;66582;43.004;-75.010;2023-03-14T13:05:51;5;4;
77481;PMS5003;66582;43.004;-75.010;2023-03-14T13:08:15;3;3;
77481;PMS5003;66582;43.004;-75.010;2023-03-14T13:10:42;3;3;
77481;PMS5003;66582;43.004;-75.010;2023-03-14T13:13:09;4;3;
77481;PMS5003;66582;43.004;-75.010;2023-03-14T13:15:30;5;4;
77481;PMS5003;66582;43.004;-75.010;2023-03-14T13:17:56;3;3;
77481;PMS5003;66582;43.004;-75.010;2023-03-14T13:20:21;2;2;
77481;PMS5003;66582;43.004;-75.010;2023-03-14T13:22:46;5;3;
77481;PMS5003;66582;43.004;-75.010;2023-03-14T13:25:10;3;3;
77481;PMS5003;66582;43.004;-75.010;2023-03-14T13:27:35;4;4;
77481;PMS5003;66582;43.004;-75.010;2023-03-14T13:30:05;3;3;
77481;PMS5003;66582;43.004;-75.010;2023-03-14T13:32:26;3;3;
77481;PMS5003;66582;43.004;-75.010;2023-03-14T13:34:50;3;3;
77481;PMS5003;66582;43.004;-75.010;2023-03-14T13:37:17;3;3;
77481;PMS5003;66582;43.004;-75.010;2023-03-14T13:39:41;2;2;
77481;PMS5003;66582;43.004;-75.010;2023-03-14T13:42:09;3;3;
77481;PMS5003;66582;43.004;-75.010;2023-03-14T13:44:31;5;5;
77481;PMS5003;66582;43.004;-75.010;2023-03-14T13:46:57;4;4;
77481;PMS5003;66582;43.004;-75.010;2023-03-14T13:49:22;3;3;
77481;PMS5003;66582;43.004;-75.010;2023-03-14T13:51:46;7;4;
77481;PMS5003;66582;43.004;-75.010;2023-03-14T13:54:13;3;3;
77481;PMS5003;66582;43.004;-75.010;2023-03-14T13:56:37;3;3;
77481;PMS5003;66582;43.004;-75.010;2023-03-14T13:59:02;3;3;
77481;PMS5003;66582;43.004;-75.010;2023-03-14T14:01:27;3;3;
77481;PMS5003;66582;43.004;-75.010;2023-03-14T14:03:53;4;4;
77481;PMS5003;66582;43.004;-75.010;2023-03-14T14:06:25;3;3;
77481;PMS5003;66582;43.004;-75.010;2023-03-14T14:08:43;3;3;
77481;PMS5003;66582;43.004;-75.010;2023-03-14T14:11:08;2;2;
77481;PMS5003;66582;43.004;-75.010;2023-03-14T14:13:33;3;2;
77481;PMS5003;66582;43.004;-75.010;2023-03-14T14:15:58;3;3;
77481;PMS5003;66582;43.004;-75.010;2023-03-14T14:18:24;4;4;
77481;PMS5003;66582;43.004;-75.010;2023-03-14T14:20:48;4;3;
77481;PMS5003;66582;43.004;-75.010;2023-03-14T14:23:14;2;2;
77481;PMS5003;66582;43.004;-75.010;2023-03-14T14:25:38;1;1;
77481;PMS5003;66582;43.004;-75.010;2023-03-14T14:30:30;5;3;
77481;PMS5003;66582;43.004;-75.010;2023-03-14T14:33:06;3;3;
77481;PMS5003;66582;43.004;-75.010;2023-03-14T14:35:22;4;3;
77481;PMS5003;66582;43.004;-75.010;2023-03-14T14:37:44;3;3;
77481;PMS5003;66582;43.004;-75.010;2023-03-14T14:40:10;2;2;
77481;PMS5003;66582;43.004;-75.010;2023-03-14T14:42:35;4;3;
77481;PMS5003;66582;43.004;-75.010;2023-03-14T14:44:59;3;3;
77481;PMS5003;66582;43.004;-75.010;2023-03-14T14:47:25;3;3;
77481;PMS5003;66582;43.004;-75.010;2023-03-14T14:49:50;2;2;
77481;PMS5003;66582;43.004;-75.010;2023-03-14T14:52:16;3;2;
77481;PMS5003;66582;43.004;-75.010;2023-03-14T14:54:44;3;2;
77481;PMS5003;66582;43.004;-75.010;2023-03-14T14:57:06;4;4;
77481;PMS5003;66582;43.004;-75.010;2023-03-14T14:59:30;3;3;
77481;PMS5003;66582;43.004;-75.010;2023-03-14T15:01:56;2;2;
77481;PMS5003;66582;43.004;-75.010;2023-03-14T15:04:21;3;3;
77481;PMS5003;66582;43.004;-75.010;2023-03-14T15:06:47;4;3;
77481;PMS5003;66582;43.004;-75.010;2023-03-14T15:09:11;2;2;
77481;PMS5003;66582;43.004;-75.010;2023-03-14T15:11:36;2;2;
77481;PMS5003;66582;43.004;-75.010;2023-03-14T15:14:01;3;3;
77481;PMS5003;66582;43.004;-75.010;2023-03-14T15:16:28;4;3;
77481;PMS5003;66582;43.004;-75.010;2023-03-14T15:18:53;2;2;
77481;PMS5003;66582;43.004;-75.010;2023-03-14T15:21:17;2;2;
77481;PMS5003;66582;43.004;-75.010;2023-03-14T15:23:42;2;2;
77481;PMS5003;66582;43.004;-75.010;2023-03-14T15:26:09;2;2;
77481;PMS5003;66582;43.004;-75.010;2023-03-14T15:28:32;1;1;
77481;PMS5003;66582;43.004;-75.010;2023-03-14T15:30:58;2;2;
77481;PMS5003;66582;43.004;-75.010;2023-03-14T15:33:23;2;1;
77481;PMS5003;66582;43.004;-75.010;2023-03-14T15:35:48;2;2;
77481;PMS5003;66582;43.004;-75.010;2023-03-14T15:38:14;2;2;
77481;PMS5003;66582;43.004;-75.010;2023-03-14T15:40:38;1;1;
77481;PMS5003;66582;43.004;-75.010;2023-03-14T15:43:03;1;1;
77481;PMS5003;66582;43.004;-75.010;2023-03-14T15:45:28;0;0;
77481;PMS5003;66582;43.004;-75.010;2023-03-14T15:47:53;3;2;
77481;PMS5003;66582;43.004;-75.010;2023-03-14T15:50:18;1;1;
77481;PMS5003;66582;43.004;-75.010;2023-03-14T15:52:44;2;2;
77481;PMS5003;66582;43.004;-75.010;2023-03-14T15:55:09;2;1;
77481;PMS5003;66582;43.004;-75.010;2023-03-14T15:57:34;1;1;
77481;PMS5003;66582;43.004;-75.010;2023-03-14T15:59:59;1;1;
77481;PMS5003;66582;43.004;-75.010;2023-03-14T16:02:24;2;2;
77481;PMS5003;66582;43.004;-75.010;2023-03-14T16:04:49;1;1;
77481;PMS5003;66582;43.004;-75.010;2023-03-14T16:07:14;1;1;
77481;PMS5003;66582;43.004;-75.010;2023-03-14T16:09:39;1;1;
77481;PMS5003;66582;43.004;-75.010;2023-03-14T16:12:05;2;1;
77481;PMS5003;66582;43.004;-75.010;2023-03-14T16:14:30;1;1;